sensor_id;sensor_type;location;lat;lon;timestamp;pressure;altitude;pressure_sealevel;temperature
53667;BMP280;39568;51.026;5.468;2023-06-24T00:01:41;101613.94;;;19.30
53667;BMP280;39568;51.026;5.468;2023-06-24T00:04:07;101620.75;;;19.23
53667;BMP280;39568;51.026;5.468;2023-06-24T00:06:35;101610.00;;;19.10
53667;BMP280;39568;51.026;5.468;2023-06-24T00:09:05;101613.13;;;19.01
53667;BMP280;39568;51.026;5.468;2023-06-24T00:11:33;101624.72;;;19.09
53667;BMP280;39568;51.026;5.468;2023-06-24T00:14:06;101616.63;;;19.09
53667;BMP280;39568;51.026;5.468;2023-06-24T00:16:33;101615.72;;;18.94
53667;BMP280;39568;51.026;5.468;2023-06-24T00:19:03;101607.78;;;18.88
53667;BMP280;39568;51.026;5.468;2023-06-24T00:21:30;101607.28;;;18.77
53667;BMP280;39568;51.026;5.468;2023-06-24T00:23:57;101602.84;;;18.66
53667;BMP280;39568;51.026;5.468;2023-06-24T00:26:25;101599.16;;;18.56
53667;BMP280;39568;51.026;5.468;2023-06-24T00:28:52;101599.56;;;18.47
53667;BMP280;39568;51.026;5.468;2023-06-24T00:31:20;101593.97;;;18.45
53667;BMP280;39568;51.026;5.468;2023-06-24T00:33:50;101586.53;;;18.38
53667;BMP280;39568;51.026;5.468;2023-06-24T00:36:18;101586.31;;;18.36
53667;BMP280;39568;51.026;5.468;2023-06-24T00:38:46;101586.44;;;18.30
53667;BMP280;39568;51.026;5.468;2023-06-24T00:41:17;101596.47;;;18.30
53667;BMP280;39568;51.026;5.468;2023-06-24T00:43:44;101582.59;;;18.26
53667;BMP280;39568;51.026;5.468;2023-06-24T00:46:11;101600.53;;;18.23
53667;BMP280;39568;51.026;5.468;2023-06-24T00:48:41;101594.94;;;18.21
53667;BMP280;39568;51.026;5.468;2023-06-24T00:51:07;101606.03;;;18.18
53667;BMP280;39568;51.026;5.468;2023-06-24T00:53:39;101600.41;;;18.16
53667;BMP280;39568;51.026;5.468;2023-06-24T00:56:07;101598.84;;;18.20
53667;BMP280;39568;51.026;5.468;2023-06-24T00:58:35;101610.16;;;18.32
53667;BMP280;39568;51.026;5.468;2023-06-24T01:01:04;101614.38;;;18.54
53667;BMP280;39568;51.026;5.468;2023-06-24T01:03:34;101603.69;;;18.48
53667;BMP280;39568;51.026;5.468;2023-06-24T01:06:05;101601.66;;;18.54
53667;BMP280;39568;51.026;5.468;2023-06-24T01:08:31;101597.50;;;18.53
53667;BMP280;39568;51.026;5.468;2023-06-24T01:11:01;101600.19;;;18.53
53667;BMP280;39568;51.026;5.468;2023-06-24T01:13:28;101600.78;;;18.59
53667;BMP280;39568;51.026;5.468;2023-06-24T01:16:00;101612.63;;;18.56
53667;BMP280;39568;51.026;5.468;2023-06-24T01:18:29;101612.78;;;18.71
53667;BMP280;39568;51.026;5.468;2023-06-24T01:21:05;101605.00;;;18.81
53667;BMP280;39568;51.026;5.468;2023-06-24T01:23:56;101605.97;;;18.70
53667;BMP280;39568;51.026;5.468;2023-06-24T01:26:58;101603.50;;;18.59
53667;BMP280;39568;51.026;5.468;2023-06-24T01:32:29;101610.16;;;18.45
53667;BMP280;39568;51.026;5.468;2023-06-24T01:35:02;101602.97;;;18.47
53667;BMP280;39568;51.026;5.468;2023-06-24T01:37:35;101605.25;;;18.43
53667;BMP280;39568;51.026;5.468;2023-06-24T01:40:08;101607.47;;;18.32
53667;BMP280;39568;51.026;5.468;2023-06-24T01:42:37;101594.94;;;18.21
53667;BMP280;39568;51.026;5.468;2023-06-24T01:45:06;101608.19;;;18.06
53667;BMP280;39568;51.026;5.468;2023-06-24T01:47:37;101602.88;;;18.01
53667;BMP280;39568;51.026;5.468;2023-06-24T01:50:06;101605.91;;;17.97
53667;BMP280;39568;51.026;5.468;2023-06-24T01:52:38;101609.81;;;17.96
53667;BMP280;39568;51.026;5.468;2023-06-24T01:55:08;101605.97;;;17.92
53667;BMP280;39568;51.026;5.468;2023-06-24T01:57:38;101601.44;;;17.87
53667;BMP280;39568;51.026;5.468;2023-06-24T02:00:08;101603.38;;;17.73
53667;BMP280;39568;51.026;5.468;2023-06-24T02:02:39;101600.50;;;17.71
53667;BMP280;39568;51.026;5.468;2023-06-24T02:05:07;101600.78;;;17.67
53667;BMP280;39568;51.026;5.468;2023-06-24T02:07:37;101600.16;;;17.61
53667;BMP280;39568;51.026;5.468;2023-06-24T02:10:07;101602.63;;;17.59
53667;BMP280;39568;51.026;5.468;2023-06-24T02:12:35;101599.94;;;17.59
53667;BMP280;39568;51.026;5.468;2023-06-24T02:15:02;101598.75;;;17.42
53667;BMP280;39568;51.026;5.468;2023-06-24T02:17:33;101602.38;;;17.13
53667;BMP280;39568;51.026;5.468;2023-06-24T02:20:02;101593.78;;;16.95
53667;BMP280;39568;51.026;5.468;2023-06-24T02:22:31;101595.53;;;16.93
53667;BMP280;39568;51.026;5.468;2023-06-24T02:24:57;101594.66;;;16.85
53667;BMP280;39568;51.026;5.468;2023-06-24T02:27:25;101577.94;;;16.73
53667;BMP280;39568;51.026;5.468;2023-06-24T02:29:54;101585.59;;;16.64
53667;BMP280;39568;51.026;5.468;2023-06-24T02:32:21;101581.09;;;16.53
53667;BMP280;39568;51.026;5.468;2023-06-24T02:34:50;101590.22;;;16.45
53667;BMP280;39568;51.026;5.468;2023-06-24T02:37:19;101592.47;;;16.41
53667;BMP280;39568;51.026;5.468;2023-06-24T02:39:46;101592.25;;;16.39
53667;BMP280;39568;51.026;5.468;2023-06-24T02:42:14;101595.16;;;16.41
53667;BMP280;39568;51.026;5.468;2023-06-24T02:44:42;101593.69;;;16.40
53667;BMP280;39568;51.026;5.468;2023-06-24T02:47:11;101590.56;;;16.36
53667;BMP280;39568;51.026;5.468;2023-06-24T02:49:42;101593.38;;;16.25
53667;BMP280;39568;51.026;5.468;2023-06-24T02:52:11;101599.31;;;16.17
53667;BMP280;39568;51.026;5.468;2023-06-24T02:54:40;101596.44;;;16.15
53667;BMP280;39568;51.026;5.468;2023-06-24T02:57:08;101595.69;;;16.15
53667;BMP280;39568;51.026;5.468;2023-06-24T02:59:35;101586.13;;;16.19
53667;BMP280;39568;51.026;5.468;2023-06-24T03:02:05;101599.31;;;16.17
53667;BMP280;39568;51.026;5.468;2023-06-24T03:04:33;101601.09;;;16.34
53667;BMP280;39568;51.026;5.468;2023-06-24T03:07:00;101599.19;;;16.29
53667;BMP280;39568;51.026;5.468;2023-06-24T03:09:27;101602.28;;;16.14
53667;BMP280;39568;51.026;5.468;2023-06-24T03:11:56;101602.09;;;16.06
53667;BMP280;39568;51.026;5.468;2023-06-24T03:14:22;101601.63;;;16.08
53667;BMP280;39568;51.026;5.468;2023-06-24T03:16:49;101601.84;;;16.10
53667;BMP280;39568;51.026;5.468;2023-06-24T03:19:15;101608.28;;;16.26
53667;BMP280;39568;51.026;5.468;2023-06-24T03:21:48;101603.69;;;16.20
53667;BMP280;39568;51.026;5.468;2023-06-24T03:24:16;101605.84;;;16.22
53667;BMP280;39568;51.026;5.468;2023-06-24T03:26:44;101602.69;;;16.24
53667;BMP280;39568;51.026;5.468;2023-06-24T03:29:14;101602.47;;;16.22
53667;BMP280;39568;51.026;5.468;2023-06-24T03:31:41;101604.22;;;16.13
53667;BMP280;39568;51.026;5.468;2023-06-24T03:34:09;101610.34;;;16.14
53667;BMP280;39568;51.026;5.468;2023-06-24T03:36:36;101612.09;;;16.06
53667;BMP280;39568;51.026;5.468;2023-06-24T03:39:04;101622.13;;;16.05
53667;BMP280;39568;51.026;5.468;2023-06-24T03:41:31;101620.00;;;15.98
53667;BMP280;39568;51.026;5.468;2023-06-24T03:44:00;101623.16;;;15.97
53667;BMP280;39568;51.026;5.468;2023-06-24T03:46:28;101624.19;;;15.94
53667;BMP280;39568;51.026;5.468;2023-06-24T03:48:58;101624.91;;;15.94
53667;BMP280;39568;51.026;5.468;2023-06-24T03:51:26;101626.09;;;15.99
53667;BMP280;39568;51.026;5.468;2023-06-24T03:53:53;101630.34;;;16.13
53667;BMP280;39568;51.026;5.468;2023-06-24T03:56:20;101633.09;;;16.07
53667;BMP280;39568;51.026;5.468;2023-06-24T03:58:48;101629.16;;;16.08
53667;BMP280;39568;51.026;5.468;2023-06-24T04:01:15;101628.19;;;16.11
53667;BMP280;39568;51.026;5.468;2023-06-24T04:03:46;101629.63;;;16.12
53667;BMP280;39568;51.026;5.468;2023-06-24T04:06:12;101632.53;;;16.14
53667;BMP280;39568;51.026;5.468;2023-06-24T04:08:39;101634.03;;;16.15
53667;BMP280;39568;51.026;5.468;2023-06-24T04:11:10;101632.66;;;16.28
53667;BMP280;39568;51.026;5.468;2023-06-24T04:13:39;101637.25;;;16.33
53667;BMP280;39568;51.026;5.468;2023-06-24T04:16:05;101644.66;;;16.51
53667;BMP280;39568;51.026;5.468;2023-06-24T04:18:33;101635.16;;;16.68
53667;BMP280;39568;51.026;5.468;2023-06-24T04:21:06;101644.84;;;16.77
53667;BMP280;39568;51.026;5.468;2023-06-24T04:23:33;101645.03;;;16.79
53667;BMP280;39568;51.026;5.468;2023-06-24T04:26:00;101641.81;;;16.86
53667;BMP280;39568;51.026;5.468;2023-06-24T04:28:27;101642.59;;;16.81
53667;BMP280;39568;51.026;5.468;2023-06-24T04:30:54;101640.13;;;16.83
53667;BMP280;39568;51.026;5.468;2023-06-24T04:33:24;101647.09;;;16.73
53667;BMP280;39568;51.026;5.468;2023-06-24T04:35:51;101642.59;;;17.00
53667;BMP280;39568;51.026;5.468;2023-06-24T04:38:19;101644.66;;;17.12
53667;BMP280;39568;51.026;5.468;2023-06-24T04:40:47;101633.59;;;17.16
53667;BMP280;39568;51.026;5.468;2023-06-24T04:43:15;101644.78;;;17.20
53667;BMP280;39568;51.026;5.468;2023-06-24T04:45:47;101645.66;;;17.09
53667;BMP280;39568;51.026;5.468;2023-06-24T04:48:15;101638.84;;;17.08
53667;BMP280;39568;51.026;5.468;2023-06-24T04:50:46;101636.66;;;17.25
53667;BMP280;39568;51.026;5.468;2023-06-24T04:53:12;101633.28;;;17.19
53667;BMP280;39568;51.026;5.468;2023-06-24T04:55:40;101636.94;;;17.22
53667;BMP280;39568;51.026;5.468;2023-06-24T04:58:09;101641.34;;;17.38
53667;BMP280;39568;51.026;5.468;2023-06-24T05:00:45;101631.97;;;17.44
53667;BMP280;39568;51.026;5.468;2023-06-24T05:03:12;101632.66;;;17.63
53667;BMP280;39568;51.026;5.468;2023-06-24T05:05:39;101638.91;;;17.72
53667;BMP280;39568;51.026;5.468;2023-06-24T05:08:06;101627.09;;;17.75
53667;BMP280;39568;51.026;5.468;2023-06-24T05:10:32;101635.38;;;17.77
53667;BMP280;39568;51.026;5.468;2023-06-24T05:13:00;101638.19;;;17.71
53667;BMP280;39568;51.026;5.468;2023-06-24T05:15:29;101642.13;;;17.83
53667;BMP280;39568;51.026;5.468;2023-06-24T05:17:56;101635.41;;;17.90
53667;BMP280;39568;51.026;5.468;2023-06-24T05:20:24;101637.06;;;17.93
53667;BMP280;39568;51.026;5.468;2023-06-24T05:22:52;101635.66;;;18.18
53667;BMP280;39568;51.026;5.468;2023-06-24T05:25:19;101636.06;;;18.22
53667;BMP280;39568;51.026;5.468;2023-06-24T05:27:45;101642.94;;;18.23
53667;BMP280;39568;51.026;5.468;2023-06-24T05:30:14;101643.31;;;18.40
53667;BMP280;39568;51.026;5.468;2023-06-24T05:32:43;101651.31;;;18.32
53667;BMP280;39568;51.026;5.468;2023-06-24T05:35:10;101652.44;;;18.37
53667;BMP280;39568;51.026;5.468;2023-06-24T05:37:37;101649.53;;;18.35
53667;BMP280;39568;51.026;5.468;2023-06-24T05:40:06;101645.28;;;18.52
53667;BMP280;39568;51.026;5.468;2023-06-24T05:42:34;101637.31;;;18.47
53667;BMP280;39568;51.026;5.468;2023-06-24T05:45:01;101632.94;;;18.57
53667;BMP280;39568;51.026;5.468;2023-06-24T05:47:29;101642.03;;;18.80
53667;BMP280;39568;51.026;5.468;2023-06-24T05:49:56;101634.75;;;18.75
53667;BMP280;39568;51.026;5.468;2023-06-24T05:52:23;101649.50;;;18.61
53667;BMP280;39568;51.026;5.468;2023-06-24T05:54:50;101644.31;;;18.63
53667;BMP280;39568;51.026;5.468;2023-06-24T05:57:17;101650.03;;;18.73
53667;BMP280;39568;51.026;5.468;2023-06-24T05:59:43;101654.06;;;18.79
53667;BMP280;39568;51.026;5.468;2023-06-24T06:02:10;101647.44;;;18.67
53667;BMP280;39568;51.026;5.468;2023-06-24T06:04:42;101653.88;;;18.77
53667;BMP280;39568;51.026;5.468;2023-06-24T06:07:09;101654.84;;;19.00
53667;BMP280;39568;51.026;5.468;2023-06-24T06:09:36;101655.13;;;19.10
53667;BMP280;39568;51.026;5.468;2023-06-24T06:12:07;101647.16;;;19.04
53667;BMP280;39568;51.026;5.468;2023-06-24T06:14:33;101655.44;;;18.93
53667;BMP280;39568;51.026;5.468;2023-06-24T06:17:00;101652.75;;;18.93
53667;BMP280;39568;51.026;5.468;2023-06-24T06:19:27;101644.34;;;19.10
53667;BMP280;39568;51.026;5.468;2023-06-24T06:21:55;101650.03;;;19.19
53667;BMP280;39568;51.026;5.468;2023-06-24T06:24:26;101649.47;;;19.21
53667;BMP280;39568;51.026;5.468;2023-06-24T06:26:53;101655.88;;;19.31
53667;BMP280;39568;51.026;5.468;2023-06-24T06:29:25;101657.31;;;19.53
53667;BMP280;39568;51.026;5.468;2023-06-24T06:31:55;101669.63;;;19.61
53667;BMP280;39568;51.026;5.468;2023-06-24T06:34:22;101666.13;;;19.74
53667;BMP280;39568;51.026;5.468;2023-06-24T06:36:48;101656.31;;;19.84
53667;BMP280;39568;51.026;5.468;2023-06-24T06:39:17;101659.66;;;19.97
53667;BMP280;39568;51.026;5.468;2023-06-24T06:41:44;101665.84;;;20.05
53667;BMP280;39568;51.026;5.468;2023-06-24T06:44:11;101661.94;;;20.14
53667;BMP280;39568;51.026;5.468;2023-06-24T06:46:39;101663.63;;;20.32
53667;BMP280;39568;51.026;5.468;2023-06-24T06:49:08;101676.47;;;20.11
53667;BMP280;39568;51.026;5.468;2023-06-24T06:51:35;101666.09;;;20.23
53667;BMP280;39568;51.026;5.468;2023-06-24T06:54:02;101676.66;;;20.41
53667;BMP280;39568;51.026;5.468;2023-06-24T06:56:30;101668.53;;;20.41
53667;BMP280;39568;51.026;5.468;2023-06-24T06:58:56;101674.53;;;20.47
53667;BMP280;39568;51.026;5.468;2023-06-24T07:01:23;101680.84;;;20.57
53667;BMP280;39568;51.026;5.468;2023-06-24T07:03:50;101674.94;;;20.66
53667;BMP280;39568;51.026;5.468;2023-06-24T07:06:19;101674.25;;;20.73
53667;BMP280;39568;51.026;5.468;2023-06-24T07:08:46;101673.53;;;20.73
53667;BMP280;39568;51.026;5.468;2023-06-24T07:11:13;101688.03;;;20.90
53667;BMP280;39568;51.026;5.468;2023-06-24T07:13:41;101687.28;;;20.82
53667;BMP280;39568;51.026;5.468;2023-06-24T07:16:08;101682.47;;;20.96
53667;BMP280;39568;51.026;5.468;2023-06-24T07:18:35;101680.81;;;20.93
53667;BMP280;39568;51.026;5.468;2023-06-24T07:21:02;101683.41;;;21.14
53667;BMP280;39568;51.026;5.468;2023-06-24T07:23:29;101674.03;;;21.30
53667;BMP280;39568;51.026;5.468;2023-06-24T07:25:59;101676.53;;;21.13
53667;BMP280;39568;51.026;5.468;2023-06-24T07:28:26;101676.91;;;21.24
53667;BMP280;39568;51.026;5.468;2023-06-24T07:30:54;101675.28;;;21.29
53667;BMP280;39568;51.026;5.468;2023-06-24T07:33:21;101674.41;;;21.41
53667;BMP280;39568;51.026;5.468;2023-06-24T07:35:47;101682.16;;;21.45
53667;BMP280;39568;51.026;5.468;2023-06-24T07:38:14;101683.59;;;21.61
53667;BMP280;39568;51.026;5.468;2023-06-24T07:40:41;101678.19;;;21.68
53667;BMP280;39568;51.026;5.468;2023-06-24T07:43:08;101672.56;;;21.66
53667;BMP280;39568;51.026;5.468;2023-06-24T07:45:34;101677.28;;;21.81
53667;BMP280;39568;51.026;5.468;2023-06-24T07:48:03;101676.69;;;21.90
53667;BMP280;39568;51.026;5.468;2023-06-24T07:50:32;101668.75;;;21.92
53667;BMP280;39568;51.026;5.468;2023-06-24T07:53:00;101675.41;;;21.99
53667;BMP280;39568;51.026;5.468;2023-06-24T07:55:33;101680.06;;;22.13
53667;BMP280;39568;51.026;5.468;2023-06-24T07:58:00;101684.06;;;22.05
53667;BMP280;39568;51.026;5.468;2023-06-24T08:00:28;101683.16;;;22.10
53667;BMP280;39568;51.026;5.468;2023-06-24T08:02:54;101686.19;;;22.21
53667;BMP280;39568;51.026;5.468;2023-06-24T08:05:22;101685.00;;;22.47
53667;BMP280;39568;51.026;5.468;2023-06-24T08:07:51;101681.09;;;22.72
53667;BMP280;39568;51.026;5.468;2023-06-24T08:10:18;101686.00;;;22.66
53667;BMP280;39568;51.026;5.468;2023-06-24T08:12:49;101677.78;;;22.81
53667;BMP280;39568;51.026;5.468;2023-06-24T08:15:24;101678.03;;;22.68
53667;BMP280;39568;51.026;5.468;2023-06-24T08:18:01;101687.56;;;22.77
53667;BMP280;39568;51.026;5.468;2023-06-24T08:20:29;101686.31;;;22.78
53667;BMP280;39568;51.026;5.468;2023-06-24T08:22:56;101681.47;;;23.01
53667;BMP280;39568;51.026;5.468;2023-06-24T08:25:26;101669.59;;;23.14
53667;BMP280;39568;51.026;5.468;2023-06-24T08:27:53;101674.34;;;22.81
53667;BMP280;39568;51.026;5.468;2023-06-24T08:30:19;101678.00;;;22.76
53667;BMP280;39568;51.026;5.468;2023-06-24T08:32:46;101673.06;;;23.07
53667;BMP280;39568;51.026;5.468;2023-06-24T08:35:14;101676.59;;;23.24
53667;BMP280;39568;51.026;5.468;2023-06-24T08:37:43;101665.03;;;23.41
53667;BMP280;39568;51.026;5.468;2023-06-24T08:40:11;101662.19;;;23.56
53667;BMP280;39568;51.026;5.468;2023-06-24T08:42:38;101678.16;;;23.52
53667;BMP280;39568;51.026;5.468;2023-06-24T08:45:08;101669.53;;;23.46
53667;BMP280;39568;51.026;5.468;2023-06-24T08:47:35;101668.56;;;23.51
53667;BMP280;39568;51.026;5.468;2023-06-24T08:50:06;101671.59;;;23.55
53667;BMP280;39568;51.026;5.468;2023-06-24T08:52:45;101680.25;;;23.61
53667;BMP280;39568;51.026;5.468;2023-06-24T08:55:16;101688.25;;;23.76
53667;BMP280;39568;51.026;5.468;2023-06-24T08:57:43;101675.56;;;23.78
53667;BMP280;39568;51.026;5.468;2023-06-24T09:00:11;101675.44;;;23.86
53667;BMP280;39568;51.026;5.468;2023-06-24T09:02:38;101667.69;;;23.83
53667;BMP280;39568;51.026;5.468;2023-06-24T09:05:05;101658.97;;;24.01
53667;BMP280;39568;51.026;5.468;2023-06-24T09:07:32;101672.06;;;24.12
53667;BMP280;39568;51.026;5.468;2023-06-24T09:10:01;101672.63;;;24.11
53667;BMP280;39568;51.026;5.468;2023-06-24T09:12:31;101663.78;;;24.10
53667;BMP280;39568;51.026;5.468;2023-06-24T09:14:58;101656.47;;;24.39
53667;BMP280;39568;51.026;5.468;2023-06-24T09:17:25;101650.88;;;24.54
53667;BMP280;39568;51.026;5.468;2023-06-24T09:19:53;101663.44;;;24.50
53667;BMP280;39568;51.026;5.468;2023-06-24T09:22:19;101664.19;;;24.60
53667;BMP280;39568;51.026;5.468;2023-06-24T09:24:48;101663.97;;;24.75
53667;BMP280;39568;51.026;5.468;2023-06-24T09:27:17;101659.41;;;24.87
53667;BMP280;39568;51.026;5.468;2023-06-24T09:29:47;101653.78;;;25.12
53667;BMP280;39568;51.026;5.468;2023-06-24T09:32:14;101656.81;;;25.35
53667;BMP280;39568;51.026;5.468;2023-06-24T09:34:40;101648.66;;;25.82
53667;BMP280;39568;51.026;5.468;2023-06-24T09:37:10;101644.41;;;26.60
53667;BMP280;39568;51.026;5.468;2023-06-24T09:39:47;101646.72;;;26.84
53667;BMP280;39568;51.026;5.468;2023-06-24T09:42:15;101648.91;;;27.84
53667;BMP280;39568;51.026;5.468;2023-06-24T09:44:53;101643.13;;;28.70
53667;BMP280;39568;51.026;5.468;2023-06-24T09:47:20;101649.72;;;29.02
53667;BMP280;39568;51.026;5.468;2023-06-24T09:49:54;101646.81;;;29.11
53667;BMP280;39568;51.026;5.468;2023-06-24T09:52:22;101636.03;;;29.66
53667;BMP280;39568;51.026;5.468;2023-06-24T09:54:51;101632.63;;;28.78
53667;BMP280;39568;51.026;5.468;2023-06-24T09:57:25;101638.00;;;28.53
53667;BMP280;39568;51.026;5.468;2023-06-24T09:59:53;101634.56;;;28.30
53667;BMP280;39568;51.026;5.468;2023-06-24T10:02:21;101629.31;;;28.45
53667;BMP280;39568;51.026;5.468;2023-06-24T10:04:50;101628.06;;;27.56
53667;BMP280;39568;51.026;5.468;2023-06-24T10:07:18;101626.00;;;28.35
53667;BMP280;39568;51.026;5.468;2023-06-24T10:09:46;101643.06;;;28.93
53667;BMP280;39568;51.026;5.468;2023-06-24T10:12:14;101627.03;;;29.90
53667;BMP280;39568;51.026;5.468;2023-06-24T10:14:42;101622.41;;;28.67
53667;BMP280;39568;51.026;5.468;2023-06-24T10:17:11;101625.13;;;29.04
53667;BMP280;39568;51.026;5.468;2023-06-24T10:19:39;101618.81;;;29.26
53667;BMP280;39568;51.026;5.468;2023-06-24T10:22:08;101616.88;;;29.93
53667;BMP280;39568;51.026;5.468;2023-06-24T10:24:37;101611.97;;;30.88
53667;BMP280;39568;51.026;5.468;2023-06-24T10:27:08;101616.56;;;28.61
53667;BMP280;39568;51.026;5.468;2023-06-24T10:29:35;101608.06;;;29.56
53667;BMP280;39568;51.026;5.468;2023-06-24T10:32:05;101603.78;;;30.90
53667;BMP280;39568;51.026;5.468;2023-06-24T10:34:39;101602.41;;;30.89
53667;BMP280;39568;51.026;5.468;2023-06-24T10:37:12;101592.06;;;30.74
53667;BMP280;39568;51.026;5.468;2023-06-24T10:39:50;101595.84;;;29.06
53667;BMP280;39568;51.026;5.468;2023-06-24T10:42:31;101596.53;;;29.71
53667;BMP280;39568;51.026;5.468;2023-06-24T10:45:00;101597.44;;;29.75
53667;BMP280;39568;51.026;5.468;2023-06-24T10:47:29;101585.50;;;31.26
53667;BMP280;39568;51.026;5.468;2023-06-24T10:49:58;101594.22;;;30.06
53667;BMP280;39568;51.026;5.468;2023-06-24T10:52:26;101577.72;;;30.75
53667;BMP280;39568;51.026;5.468;2023-06-24T10:54:54;101581.06;;;31.03
53667;BMP280;39568;51.026;5.468;2023-06-24T10:57:22;101582.38;;;30.44
53667;BMP280;39568;51.026;5.468;2023-06-24T10:59:49;101573.13;;;30.80
53667;BMP280;39568;51.026;5.468;2023-06-24T11:02:17;101574.69;;;31.30
53667;BMP280;39568;51.026;5.468;2023-06-24T11:04:47;101570.91;;;30.63
53667;BMP280;39568;51.026;5.468;2023-06-24T11:07:18;101569.91;;;31.30
53667;BMP280;39568;51.026;5.468;2023-06-24T11:09:49;101572.91;;;30.76
53667;BMP280;39568;51.026;5.468;2023-06-24T11:12:16;101568.78;;;31.35
53667;BMP280;39568;51.026;5.468;2023-06-24T11:14:43;101566.22;;;32.38
53667;BMP280;39568;51.026;5.468;2023-06-24T11:17:09;101567.88;;;31.46
53667;BMP280;39568;51.026;5.468;2023-06-24T11:19:38;101565.13;;;31.62
53667;BMP280;39568;51.026;5.468;2023-06-24T11:22:08;101567.63;;;31.56
53667;BMP280;39568;51.026;5.468;2023-06-24T11:24:35;101557.81;;;30.19
53667;BMP280;39568;51.026;5.468;2023-06-24T11:27:05;101554.53;;;31.25
53667;BMP280;39568;51.026;5.468;2023-06-24T11:29:32;101552.06;;;31.62
53667;BMP280;39568;51.026;5.468;2023-06-24T11:32:01;101551.69;;;32.91
53667;BMP280;39568;51.026;5.468;2023-06-24T11:34:28;101554.06;;;32.46
53667;BMP280;39568;51.026;5.468;2023-06-24T11:36:56;101552.88;;;32.86
53667;BMP280;39568;51.026;5.468;2023-06-24T11:39:25;101543.75;;;32.11
53667;BMP280;39568;51.026;5.468;2023-06-24T11:41:52;101550.56;;;34.19
53667;BMP280;39568;51.026;5.468;2023-06-24T11:44:19;101543.59;;;35.12
53667;BMP280;39568;51.026;5.468;2023-06-24T11:46:50;101550.44;;;36.24
53667;BMP280;39568;51.026;5.468;2023-06-24T11:49:18;101552.63;;;33.36
53667;BMP280;39568;51.026;5.468;2023-06-24T11:51:49;101544.16;;;33.11
53667;BMP280;39568;51.026;5.468;2023-06-24T11:54:20;101546.22;;;33.49
53667;BMP280;39568;51.026;5.468;2023-06-24T11:56:52;101549.28;;;33.20
53667;BMP280;39568;51.026;5.468;2023-06-24T11:59:21;101550.75;;;34.03
53667;BMP280;39568;51.026;5.468;2023-06-24T12:01:52;101542.13;;;33.93
53667;BMP280;39568;51.026;5.468;2023-06-24T12:04:20;101541.81;;;34.05
53667;BMP280;39568;51.026;5.468;2023-06-24T12:06:49;101537.03;;;32.49
53667;BMP280;39568;51.026;5.468;2023-06-24T12:09:15;101538.25;;;32.64
53667;BMP280;39568;51.026;5.468;2023-06-24T12:11:43;101536.81;;;33.37
53667;BMP280;39568;51.026;5.468;2023-06-24T12:14:13;101540.84;;;33.34
53667;BMP280;39568;51.026;5.468;2023-06-24T12:16:40;101529.78;;;34.40
53667;BMP280;39568;51.026;5.468;2023-06-24T12:19:07;101525.13;;;34.95
53667;BMP280;39568;51.026;5.468;2023-06-24T12:21:34;101519.03;;;35.81
53667;BMP280;39568;51.026;5.468;2023-06-24T12:24:00;101530.00;;;34.02
53667;BMP280;39568;51.026;5.468;2023-06-24T12:26:27;101528.59;;;33.80
53667;BMP280;39568;51.026;5.468;2023-06-24T12:28:54;101525.63;;;33.74
53667;BMP280;39568;51.026;5.468;2023-06-24T12:31:24;101515.34;;;35.73
53667;BMP280;39568;51.026;5.468;2023-06-24T12:33:51;101519.09;;;36.49
53667;BMP280;39568;51.026;5.468;2023-06-24T12:36:18;101518.31;;;35.81
53667;BMP280;39568;51.026;5.468;2023-06-24T12:38:45;101524.41;;;34.69
53667;BMP280;39568;51.026;5.468;2023-06-24T12:41:12;101518.22;;;36.08
53667;BMP280;39568;51.026;5.468;2023-06-24T12:43:39;101515.59;;;35.00
53667;BMP280;39568;51.026;5.468;2023-06-24T12:46:06;101516.97;;;35.54
53667;BMP280;39568;51.026;5.468;2023-06-24T12:48:34;101518.59;;;36.25
53667;BMP280;39568;51.026;5.468;2023-06-24T12:51:01;101503.78;;;36.12
53667;BMP280;39568;51.026;5.468;2023-06-24T12:53:29;101506.41;;;37.13
53667;BMP280;39568;51.026;5.468;2023-06-24T12:55:56;101508.44;;;36.71
53667;BMP280;39568;51.026;5.468;2023-06-24T12:58:24;101502.69;;;35.93
53667;BMP280;39568;51.026;5.468;2023-06-24T13:00:53;101502.75;;;35.38
53667;BMP280;39568;51.026;5.468;2023-06-24T13:03:21;101500.97;;;35.23
53667;BMP280;39568;51.026;5.468;2023-06-24T13:05:49;101509.69;;;34.86
53667;BMP280;39568;51.026;5.468;2023-06-24T13:08:16;101509.38;;;34.51
53667;BMP280;39568;51.026;5.468;2023-06-24T13:10:42;101500.66;;;35.37
53667;BMP280;39568;51.026;5.468;2023-06-24T13:13:11;101499.25;;;35.65
53667;BMP280;39568;51.026;5.468;2023-06-24T13:15:39;101492.59;;;37.58
53667;BMP280;39568;51.026;5.468;2023-06-24T13:18:06;101499.91;;;35.64
53667;BMP280;39568;51.026;5.468;2023-06-24T13:20:32;101495.59;;;36.18
53667;BMP280;39568;51.026;5.468;2023-06-24T13:23:08;101489.47;;;36.97
53667;BMP280;39568;51.026;5.468;2023-06-24T13:25:37;101490.50;;;36.76
53667;BMP280;39568;51.026;5.468;2023-06-24T13:28:05;101484.78;;;37.49
53667;BMP280;39568;51.026;5.468;2023-06-24T13:30:32;101478.22;;;39.01
53667;BMP280;39568;51.026;5.468;2023-06-24T13:32:59;101486.44;;;36.11
53667;BMP280;39568;51.026;5.468;2023-06-24T13:35:27;101479.91;;;37.47
53667;BMP280;39568;51.026;5.468;2023-06-24T13:37:56;101484.03;;;39.33
53667;BMP280;39568;51.026;5.468;2023-06-24T13:40:25;101477.38;;;38.17
53667;BMP280;39568;51.026;5.468;2023-06-24T13:42:52;101472.66;;;37.26
53667;BMP280;39568;51.026;5.468;2023-06-24T13:45:19;101475.91;;;38.10
53667;BMP280;39568;51.026;5.468;2023-06-24T13:47:47;101471.63;;;38.01
53667;BMP280;39568;51.026;5.468;2023-06-24T13:50:17;101477.13;;;39.44
53667;BMP280;39568;51.026;5.468;2023-06-24T13:52:46;101476.22;;;38.36
53667;BMP280;39568;51.026;5.468;2023-06-24T13:55:13;101475.56;;;39.17
53667;BMP280;39568;51.026;5.468;2023-06-24T13:57:41;101471.25;;;40.64
53667;BMP280;39568;51.026;5.468;2023-06-24T14:00:10;101467.53;;;39.71
53667;BMP280;39568;51.026;5.468;2023-06-24T14:02:36;101467.50;;;38.69
53667;BMP280;39568;51.026;5.468;2023-06-24T14:05:04;101467.00;;;38.89
53667;BMP280;39568;51.026;5.468;2023-06-24T14:07:31;101474.25;;;39.28